sensor_id;sensor_type;location;lat;lon;timestamp;pressure;altitude;pressure_sealevel;temperature
77789;BMP280;66980;44.384;0.512;2023-03-23T00:01:08;100904.25;;;22.14
77789;BMP280;66980;44.384;0.512;2023-03-23T00:03:39;100917.91;;;22.12
77789;BMP280;66980;44.384;0.512;2023-03-23T00:06:05;100914.97;;;22.10
77789;BMP280;66980;44.384;0.512;2023-03-23T00:08:36;100904.47;;;22.09
77789;BMP280;66980;44.384;0.512;2023-03-23T00:11:04;100899.34;;;22.05
77789;BMP280;66980;44.384;0.512;2023-03-23T00:13:29;100883.53;;;21.98
77789;BMP280;66980;44.384;0.512;2023-03-23T00:15:56;100891.31;;;21.92
77789;BMP280;66980;44.384;0.512;2023-03-23T00:18:23;100902.88;;;21.98
77789;BMP280;66980;44.384;0.512;2023-03-23T00:20:53;100900.50;;;21.94
77789;BMP280;66980;44.384;0.512;2023-03-23T00:23:21;100888.38;;;21.90
77789;BMP280;66980;44.384;0.512;2023-03-23T00:25:54;100889.81;;;21.91
77789;BMP280;66980;44.384;0.512;2023-03-23T00:28:25;100879.34;;;21.89
77789;BMP280;66980;44.384;0.512;2023-03-23T00:31:09;100886.53;;;21.85
77789;BMP280;66980;44.384;0.512;2023-03-23T00:33:36;100878.22;;;21.85
77789;BMP280;66980;44.384;0.512;2023-03-23T00:36:09;100879.94;;;21.80
77789;BMP280;66980;44.384;0.512;2023-03-23T00:38:36;100877.19;;;21.80
77789;BMP280;66980;44.384;0.512;2023-03-23T00:41:02;100881.25;;;21.79
77789;BMP280;66980;44.384;0.512;2023-03-23T00:43:28;100872.59;;;21.75
77789;BMP280;66980;44.384;0.512;2023-03-23T00:45:54;100880.16;;;21.75
77789;BMP280;66980;44.384;0.512;2023-03-23T00:48:21;100875.16;;;21.73
77789;BMP280;66980;44.384;0.512;2023-03-23T00:50:47;100880.53;;;21.71
77789;BMP280;66980;44.384;0.512;2023-03-23T00:53:13;100877.22;;;21.65
77789;BMP280;66980;44.384;0.512;2023-03-23T00:55:43;100880.16;;;21.67
77789;BMP280;66980;44.384;0.512;2023-03-23T00:58:10;100878.50;;;21.64
77789;BMP280;66980;44.384;0.512;2023-03-23T01:00:36;100876.16;;;21.60
77789;BMP280;66980;44.384;0.512;2023-03-23T01:03:02;100875.44;;;21.60
77789;BMP280;66980;44.384;0.512;2023-03-23T01:05:27;100873.56;;;21.55
77789;BMP280;66980;44.384;0.512;2023-03-23T01:07:59;100872.13;;;21.54
77789;BMP280;66980;44.384;0.512;2023-03-23T01:10:25;100868.44;;;21.51
77789;BMP280;66980;44.384;0.512;2023-03-23T01:12:58;100861.97;;;21.49
77789;BMP280;66980;44.384;0.512;2023-03-23T01:15:25;100849.16;;;21.43
77789;BMP280;66980;44.384;0.512;2023-03-23T01:17:51;100857.59;;;21.45
77789;BMP280;66980;44.384;0.512;2023-03-23T01:20:17;100859.59;;;21.45
77789;BMP280;66980;44.384;0.512;2023-03-23T01:22:42;100857.97;;;21.42
77789;BMP280;66980;44.384;0.512;2023-03-23T01:25:10;100858.88;;;21.44
77789;BMP280;66980;44.384;0.512;2023-03-23T01:27:36;100853.94;;;21.43
77789;BMP280;66980;44.384;0.512;2023-03-23T01:30:03;100848.94;;;21.41
77789;BMP280;66980;44.384;0.512;2023-03-23T01:32:29;100857.06;;;21.39
77789;BMP280;66980;44.384;0.512;2023-03-23T01:34:55;100839.41;;;21.35
77789;BMP280;66980;44.384;0.512;2023-03-23T01:37:20;100853.56;;;21.39
77789;BMP280;66980;44.384;0.512;2023-03-23T01:39:54;100844.94;;;21.35
77789;BMP280;66980;44.384;0.512;2023-03-23T01:42:24;100833.16;;;21.27
77789;BMP280;66980;44.384;0.512;2023-03-23T01:47:17;100846.56;;;21.30
77789;BMP280;66980;44.384;0.512;2023-03-23T01:49:47;100838.09;;;21.28
77789;BMP280;66980;44.384;0.512;2023-03-23T01:52:16;100845.84;;;21.30
77789;BMP280;66980;44.384;0.512;2023-03-23T01:54:44;100834.28;;;21.24
77789;BMP280;66980;44.384;0.512;2023-03-23T01:57:16;100830.94;;;21.25
77789;BMP280;66980;44.384;0.512;2023-03-23T01:59:48;100828.56;;;21.22
77789;BMP280;66980;44.384;0.512;2023-03-23T02:02:15;100817.34;;;21.19
77789;BMP280;66980;44.384;0.512;2023-03-23T02:04:42;100811.63;;;21.17
77789;BMP280;66980;44.384;0.512;2023-03-23T02:07:08;100806.88;;;21.18
77789;BMP280;66980;44.384;0.512;2023-03-23T02:09:34;100826.38;;;21.20
77789;BMP280;66980;44.384;0.512;2023-03-23T02:12:00;100806.31;;;21.12
77789;BMP280;66980;44.384;0.512;2023-03-23T02:14:27;100807.06;;;21.12
77789;BMP280;66980;44.384;0.512;2023-03-23T02:31:23;100794.75;;;21.06
77789;BMP280;66980;44.384;0.512;2023-03-23T02:34:03;100790.34;;;21.03
77789;BMP280;66980;44.384;0.512;2023-03-23T02:37:05;100790.16;;;21.01
77789;BMP280;66980;44.384;0.512;2023-03-23T02:39:37;100804.16;;;21.03
77789;BMP280;66980;44.384;0.512;2023-03-23T02:42:08;100792.19;;;21.00
77789;BMP280;66980;44.384;0.512;2023-03-23T02:44:36;100792.53;;;20.97
77789;BMP280;66980;44.384;0.512;2023-03-23T02:47:05;100794.94;;;21.00
77789;BMP280;66980;44.384;0.512;2023-03-23T02:49:32;100797.53;;;20.98
77789;BMP280;66980;44.384;0.512;2023-03-23T02:51:59;100791.81;;;20.96
77789;BMP280;66980;44.384;0.512;2023-03-23T02:54:28;100785.41;;;20.93
77789;BMP280;66980;44.384;0.512;2023-03-23T02:56:54;100787.59;;;20.95
77789;BMP280;66980;44.384;0.512;2023-03-23T02:59:22;100780.97;;;20.90
77789;BMP280;66980;44.384;0.512;2023-03-23T03:02:10;100783.19;;;20.92
77789;BMP280;66980;44.384;0.512;2023-03-23T03:04:39;100780.06;;;20.88
77789;BMP280;66980;44.384;0.512;2023-03-23T03:07:28;100778.78;;;20.89
77789;BMP280;66980;44.384;0.512;2023-03-23T03:15:37;100769.06;;;20.80
77789;BMP280;66980;44.384;0.512;2023-03-23T03:20:31;100781.72;;;20.83
77789;BMP280;66980;44.384;0.512;2023-03-23T03:22:59;100792.59;;;20.81
77789;BMP280;66980;44.384;0.512;2023-03-23T03:25:26;100797.53;;;20.83
77789;BMP280;66980;44.384;0.512;2023-03-23T03:27:55;100795.88;;;20.80
77789;BMP280;66980;44.384;0.512;2023-03-23T03:30:26;100793.88;;;20.80
77789;BMP280;66980;44.384;0.512;2023-03-23T03:32:53;100791.66;;;20.79
77789;BMP280;66980;44.384;0.512;2023-03-23T03:35:23;100796.28;;;20.76
77789;BMP280;66980;44.384;0.512;2023-03-23T03:37:49;100801.44;;;20.72
77789;BMP280;66980;44.384;0.512;2023-03-23T03:40:18;100800.50;;;20.69
77789;BMP280;66980;44.384;0.512;2023-03-23T03:42:45;100801.06;;;20.76
77789;BMP280;66980;44.384;0.512;2023-03-23T03:45:17;100806.41;;;20.74
77789;BMP280;66980;44.384;0.512;2023-03-23T03:47:43;100808.97;;;20.72
77789;BMP280;66980;44.384;0.512;2023-03-23T03:50:09;100816.31;;;20.69
77789;BMP280;66980;44.384;0.512;2023-03-23T03:52:36;100815.03;;;20.70
77789;BMP280;66980;44.384;0.512;2023-03-23T03:55:01;100813.56;;;20.69
77789;BMP280;66980;44.384;0.512;2023-03-23T03:57:27;100826.41;;;20.66
77789;BMP280;66980;44.384;0.512;2023-03-23T03:59:52;100822.03;;;20.63
77789;BMP280;66980;44.384;0.512;2023-03-23T04:02:18;100811.91;;;20.51
77789;BMP280;66980;44.384;0.512;2023-03-23T04:04:49;100842.22;;;20.66
77789;BMP280;66980;44.384;0.512;2023-03-23T04:07:14;100839.47;;;20.66
77789;BMP280;66980;44.384;0.512;2023-03-23T04:09:42;100849.97;;;20.60
77789;BMP280;66980;44.384;0.512;2023-03-23T04:12:08;100855.84;;;20.64
77789;BMP280;66980;44.384;0.512;2023-03-23T04:14:34;100854.91;;;20.61
77789;BMP280;66980;44.384;0.512;2023-03-23T04:16:59;100847.00;;;20.58
77789;BMP280;66980;44.384;0.512;2023-03-23T04:19:25;100863.19;;;20.61
77789;BMP280;66980;44.384;0.512;2023-03-23T04:21:56;100835.97;;;20.42
77789;BMP280;66980;44.384;0.512;2023-03-23T04:24:23;100861.34;;;20.56
77789;BMP280;66980;44.384;0.512;2023-03-23T04:26:49;100870.19;;;20.55
77789;BMP280;66980;44.384;0.512;2023-03-23T04:29:17;100879.38;;;20.57
77789;BMP280;66980;44.384;0.512;2023-03-23T04:31:43;100859.88;;;20.55
77789;BMP280;66980;44.384;0.512;2023-03-23T04:34:10;100864.47;;;20.53
77789;BMP280;66980;44.384;0.512;2023-03-23T04:36:39;100862.06;;;20.49
77789;BMP280;66980;44.384;0.512;2023-03-23T04:39:06;100869.97;;;20.53
77789;BMP280;66980;44.384;0.512;2023-03-23T04:41:37;100868.84;;;20.48
77789;BMP280;66980;44.384;0.512;2023-03-23T04:44:03;100861.69;;;20.37
77789;BMP280;66980;44.384;0.512;2023-03-23T04:46:30;100871.44;;;20.46
77789;BMP280;66980;44.384;0.512;2023-03-23T04:48:56;100870.16;;;20.47
77789;BMP280;66980;44.384;0.512;2023-03-23T04:51:24;100870.16;;;20.47
77789;BMP280;66980;44.384;0.512;2023-03-23T04:53:51;100873.66;;;20.48
77789;BMP280;66980;44.384;0.512;2023-03-23T04:56:17;100863.72;;;20.44
77789;BMP280;66980;44.384;0.512;2023-03-23T04:58:43;100870.16;;;20.47
77789;BMP280;66980;44.384;0.512;2023-03-23T05:01:10;100862.63;;;20.40
77789;BMP280;66980;44.384;0.512;2023-03-23T05:03:39;100863.91;;;20.39
77789;BMP280;66980;44.384;0.512;2023-03-23T05:06:05;100866.84;;;20.41
77789;BMP280;66980;44.384;0.512;2023-03-23T05:08:31;100862.25;;;20.43
77789;BMP280;66980;44.384;0.512;2023-03-23T05:10:58;100851.22;;;20.36
77789;BMP280;66980;44.384;0.512;2023-03-23T05:13:24;100851.22;;;20.36
77789;BMP280;66980;44.384;0.512;2023-03-23T05:15:51;100858.03;;;20.35
77789;BMP280;66980;44.384;0.512;2023-03-23T05:18:17;100856.56;;;20.34
77789;BMP280;66980;44.384;0.512;2023-03-23T05:20:42;100846.78;;;20.25
77789;BMP280;66980;44.384;0.512;2023-03-23T05:23:09;100862.25;;;20.36
77789;BMP280;66980;44.384;0.512;2023-03-23T05:25:35;100857.63;;;20.31
77789;BMP280;66980;44.384;0.512;2023-03-23T05:28:06;100853.78;;;20.34
77789;BMP280;66980;44.384;0.512;2023-03-23T05:30:32;100853.59;;;20.32
77789;BMP280;66980;44.384;0.512;2023-03-23T05:32:59;100867.38;;;20.32
77789;BMP280;66980;44.384;0.512;2023-03-23T05:35:25;100855.94;;;20.20
77789;BMP280;66980;44.384;0.512;2023-03-23T05:37:50;100864.06;;;20.26
77789;BMP280;66980;44.384;0.512;2023-03-23T05:40:18;100864.06;;;20.26
77789;BMP280;66980;44.384;0.512;2023-03-23T05:42:44;100852.66;;;20.22
77789;BMP280;66980;44.384;0.512;2023-03-23T05:45:11;100864.81;;;20.26
77789;BMP280;66980;44.384;0.512;2023-03-23T05:47:38;100869.03;;;20.27
77789;BMP280;66980;44.384;0.512;2023-03-23T05:50:06;100883.91;;;20.24
77789;BMP280;66980;44.384;0.512;2023-03-23T05:52:33;100880.22;;;20.22
77789;BMP280;66980;44.384;0.512;2023-03-23T05:55:01;100896.41;;;20.25
77789;BMP280;66980;44.384;0.512;2023-03-23T05:57:27;100901.16;;;20.25
77789;BMP280;66980;44.384;0.512;2023-03-23T05:59:53;100894.75;;;20.22
77789;BMP280;66980;44.384;0.512;2023-03-23T06:02:18;100894.00;;;20.22
77789;BMP280;66980;44.384;0.512;2023-03-23T06:04:44;100904.09;;;20.19
77789;BMP280;66980;44.384;0.512;2023-03-23T06:07:10;100907.59;;;20.19
77789;BMP280;66980;44.384;0.512;2023-03-23T06:09:39;100904.66;;;20.17
77789;BMP280;66980;44.384;0.512;2023-03-23T06:12:05;100914.19;;;20.16
77789;BMP280;66980;44.384;0.512;2023-03-23T06:14:31;100920.81;;;20.13
77789;BMP280;66980;44.384;0.512;2023-03-23T06:16:57;100924.09;;;20.12
77789;BMP280;66980;44.384;0.512;2023-03-23T06:19:23;100921.88;;;20.10
77789;BMP280;66980;44.384;0.512;2023-03-23T06:21:48;100940.50;;;20.25
77789;BMP280;66980;44.384;0.512;2023-03-23T06:24:15;100959.44;;;20.21
77789;BMP280;66980;44.384;0.512;2023-03-23T06:26:40;100947.25;;;20.09
77789;BMP280;66980;44.384;0.512;2023-03-23T06:29:09;100944.28;;;20.14
77789;BMP280;66980;44.384;0.512;2023-03-23T06:31:42;100922.22;;;20.07
77789;BMP280;66980;44.384;0.512;2023-03-23T06:34:10;100920.94;;;20.08
77789;BMP280;66980;44.384;0.512;2023-03-23T06:36:36;100923.34;;;20.11
77789;BMP280;66980;44.384;0.512;2023-03-23T06:39:04;100924.47;;;20.16
77789;BMP280;66980;44.384;0.512;2023-03-23T06:41:31;100919.34;;;20.12
77789;BMP280;66980;44.384;0.512;2023-03-23T06:43:57;100917.84;;;20.11
77789;BMP280;66980;44.384;0.512;2023-03-23T06:46:23;100921.50;;;20.14
77789;BMP280;66980;44.384;0.512;2023-03-23T06:48:48;100923.22;;;20.17
77789;BMP280;66980;44.384;0.512;2023-03-23T06:51:17;100918.44;;;20.17
77789;BMP280;66980;44.384;0.512;2023-03-23T06:53:43;100897.44;;;20.07
77789;BMP280;66980;44.384;0.512;2023-03-23T06:56:09;100915.28;;;20.13
77789;BMP280;66980;44.384;0.512;2023-03-23T06:58:34;100929.59;;;20.12
77789;BMP280;66980;44.384;0.512;2023-03-23T07:01:00;100925.72;;;20.07
77789;BMP280;66980;44.384;0.512;2023-03-23T07:03:26;100924.81;;;20.05
77789;BMP280;66980;44.384;0.512;2023-03-23T07:05:53;100918.75;;;20.06
77789;BMP280;66980;44.384;0.512;2023-03-23T07:08:19;100918.94;;;20.08
77789;BMP280;66980;44.384;0.512;2023-03-23T07:10:46;100932.34;;;20.12
77789;BMP280;66980;44.384;0.512;2023-03-23T07:13:11;100931.97;;;20.08
77789;BMP280;66980;44.384;0.512;2023-03-23T07:15:38;100924.59;;;20.03
77789;BMP280;66980;44.384;0.512;2023-03-23T07:18:04;100934.19;;;20.09
77789;BMP280;66980;44.384;0.512;2023-03-23T07:20:30;100936.00;;;20.07
77789;BMP280;66980;44.384;0.512;2023-03-23T07:22:55;100934.34;;;20.04
77789;BMP280;66980;44.384;0.512;2023-03-23T07:25:21;100950.56;;;20.15
77789;BMP280;66980;44.384;0.512;2023-03-23T07:27:47;100955.16;;;20.12
77789;BMP280;66980;44.384;0.512;2023-03-23T07:30:13;100934.13;;;19.94
77789;BMP280;66980;44.384;0.512;2023-03-23T07:32:40;100952.03;;;20.08
77789;BMP280;66980;44.384;0.512;2023-03-23T07:35:07;100937.25;;;19.98
77789;BMP280;66980;44.384;0.512;2023-03-23T07:37:33;100942.78;;;20.06
77789;BMP280;66980;44.384;0.512;2023-03-23T07:39:59;100939.84;;;20.04
77789;BMP280;66980;44.384;0.512;2023-03-23T07:42:24;100947.25;;;20.09
77789;BMP280;66980;44.384;0.512;2023-03-23T07:44:50;100948.16;;;20.11
77789;BMP280;66980;44.384;0.512;2023-03-23T07:47:15;100959.56;;;20.15
77789;BMP280;66980;44.384;0.512;2023-03-23T07:49:43;100943.94;;;20.10
77789;BMP280;66980;44.384;0.512;2023-03-23T07:52:08;100950.91;;;20.11
77789;BMP280;66980;44.384;0.512;2023-03-23T07:54:36;100944.66;;;20.11
77789;BMP280;66980;44.384;0.512;2023-03-23T07:57:01;100953.16;;;20.20
77789;BMP280;66980;44.384;0.512;2023-03-23T07:59:27;100955.91;;;20.20
77789;BMP280;66980;44.384;0.512;2023-03-23T08:01:52;100950.94;;;20.19
77789;BMP280;66980;44.384;0.512;2023-03-23T08:04:18;100947.44;;;20.18
77789;BMP280;66980;44.384;0.512;2023-03-23T08:06:43;100954.81;;;20.24
77789;BMP280;66980;44.384;0.512;2023-03-23T08:09:09;100955.91;;;20.20
77789;BMP280;66980;44.384;0.512;2023-03-23T08:11:35;100965.84;;;20.24
77789;BMP280;66980;44.384;0.512;2023-03-23T08:14:01;100957.41;;;20.22
77789;BMP280;66980;44.384;0.512;2023-03-23T08:16:28;100961.59;;;20.23
77789;BMP280;66980;44.384;0.512;2023-03-23T08:18:53;100963.66;;;20.22
77789;BMP280;66980;44.384;0.512;2023-03-23T08:21:19;100953.53;;;20.25
77789;BMP280;66980;44.384;0.512;2023-03-23T08:23:46;100955.75;;;20.26
77789;BMP280;66980;44.384;0.512;2023-03-23T08:26:11;100952.66;;;20.30
77789;BMP280;66980;44.384;0.512;2023-03-23T08:28:37;100956.16;;;20.30
77789;BMP280;66980;44.384;0.512;2023-03-23T08:31:12;100959.09;;;20.32
77789;BMP280;66980;44.384;0.512;2023-03-23T08:33:39;100941.63;;;20.30
77789;BMP280;66980;44.384;0.512;2023-03-23T08:36:05;100945.25;;;20.25
77789;BMP280;66980;44.384;0.512;2023-03-23T08:38:31;100929.78;;;20.14
77789;BMP280;66980;44.384;0.512;2023-03-23T08:40:59;100937.91;;;20.19
77789;BMP280;66980;44.384;0.512;2023-03-23T08:43:25;100955.59;;;20.32
77789;BMP280;66980;44.384;0.512;2023-03-23T08:45:51;100945.84;;;20.31
77789;BMP280;66980;44.384;0.512;2023-03-23T08:48:17;100962.25;;;20.44
77789;BMP280;66980;44.384;0.512;2023-03-23T08:50:43;100963.19;;;20.47
77789;BMP280;66980;44.384;0.512;2023-03-23T08:53:09;100946.22;;;20.35
77789;BMP280;66980;44.384;0.512;2023-03-23T08:55:35;100965.34;;;20.40
77789;BMP280;66980;44.384;0.512;2023-03-23T08:58:01;100974.91;;;20.39
77789;BMP280;66980;44.384;0.512;2023-03-23T09:00:26;100981.50;;;20.36
77789;BMP280;66980;44.384;0.512;2023-03-23T09:02:53;100992.41;;;20.42
77789;BMP280;66980;44.384;0.512;2023-03-23T09:05:23;100990.91;;;20.41
77789;BMP280;66980;44.384;0.512;2023-03-23T09:07:52;101008.78;;;20.48
77789;BMP280;66980;44.384;0.512;2023-03-23T09:10:19;100998.22;;;20.31
77789;BMP280;66980;44.384;0.512;2023-03-23T09:12:46;101008.94;;;20.42
77789;BMP280;66980;44.384;0.512;2023-03-23T09:15:14;101015.19;;;20.42
77789;BMP280;66980;44.384;0.512;2023-03-23T09:17:50;101008.56;;;20.38
77789;BMP280;66980;44.384;0.512;2023-03-23T09:20:19;101012.56;;;20.37
77789;BMP280;66980;44.384;0.512;2023-03-23T09:22:49;101019.00;;;20.32
77789;BMP280;66980;44.384;0.512;2023-03-23T09:25:17;101005.22;;;20.32
77789;BMP280;66980;44.384;0.512;2023-03-23T09:27:46;101003.75;;;20.31
77789;BMP280;66980;44.384;0.512;2023-03-23T09:30:16;101001.53;;;20.29
77789;BMP280;66980;44.384;0.512;2023-03-23T09:32:44;101001.53;;;20.29
77789;BMP280;66980;44.384;0.512;2023-03-23T09:35:10;101005.75;;;20.30
77789;BMP280;66980;44.384;0.512;2023-03-23T09:37:38;101013.09;;;20.35
77789;BMP280;66980;44.384;0.512;2023-03-23T09:40:06;100997.16;;;20.34
77789;BMP280;66980;44.384;0.512;2023-03-23T09:42:36;100991.47;;;20.39
77789;BMP280;66980;44.384;0.512;2023-03-23T09:50:35;101001.78;;;20.47
77789;BMP280;66980;44.384;0.512;2023-03-23T09:53:10;100993.88;;;20.43
77789;BMP280;66980;44.384;0.512;2023-03-23T09:55:38;101004.34;;;20.44
77789;BMP280;66980;44.384;0.512;2023-03-23T09:58:17;101004.72;;;20.49
77789;BMP280;66980;44.384;0.512;2023-03-23T10:00:53;101002.56;;;20.55
77789;BMP280;66980;44.384;0.512;2023-03-23T10:03:25;101016.16;;;20.60
77789;BMP280;66980;44.384;0.512;2023-03-23T10:05:53;101018.75;;;20.66
77789;BMP280;66980;44.384;0.512;2023-03-23T10:08:25;101010.31;;;20.72
77789;BMP280;66980;44.384;0.512;2023-03-23T10:11:02;101009.22;;;20.75
77789;BMP280;66980;44.384;0.512;2023-03-23T10:16:03;100991.59;;;20.78
77789;BMP280;66980;44.384;0.512;2023-03-23T10:18:43;100997.66;;;20.91
77789;BMP280;66980;44.384;0.512;2023-03-23T10:21:21;100989.03;;;20.95
77789;BMP280;66980;44.384;0.512;2023-03-23T10:29:15;100967.31;;;20.99
77789;BMP280;66980;44.384;0.512;2023-03-23T10:32:00;101003.22;;;21.30
77789;BMP280;66980;44.384;0.512;2023-03-23T10:37:11;100996.97;;;21.37
77789;BMP280;66980;44.384;0.512;2023-03-23T10:39:43;100996.97;;;21.37
77789;BMP280;66980;44.384;0.512;2023-03-23T10:42:11;100996.97;;;21.37
77789;BMP280;66980;44.384;0.512;2023-03-23T10:44:36;100989.25;;;21.43
77789;BMP280;66980;44.384;0.512;2023-03-23T10:47:08;100994.75;;;21.43
77789;BMP280;66980;44.384;0.512;2023-03-23T10:49:48;100992.91;;;21.45
77789;BMP280;66980;44.384;0.512;2023-03-23T10:52:37;100992.91;;;21.45
77789;BMP280;66980;44.384;0.512;2023-03-23T10:55:17;100978.53;;;21.62
77789;BMP280;66980;44.384;0.512;2023-03-23T10:57:45;100969.84;;;21.66
77789;BMP280;66980;44.384;0.512;2023-03-23T11:00:19;100973.88;;;21.80
77789;BMP280;66980;44.384;0.512;2023-03-23T11:05:31;100937.09;;;21.62
77789;BMP280;66980;44.384;0.512;2023-03-23T11:07:59;100963.38;;;21.79
77789;BMP280;66980;44.384;0.512;2023-03-23T11:10:35;100961.91;;;21.78
77789;BMP280;66980;44.384;0.512;2023-03-23T11:13:01;100954.19;;;21.76
77789;BMP280;66980;44.384;0.512;2023-03-23T11:15:35;100954.91;;;21.84
77789;BMP280;66980;44.384;0.512;2023-03-23T11:18:06;100953.94;;;21.89
77789;BMP280;66980;44.384;0.512;2023-03-23T11:20:56;100952.84;;;21.92
77789;BMP280;66980;44.384;0.512;2023-03-23T11:23:26;100941.22;;;21.94
77789;BMP280;66980;44.384;0.512;2023-03-23T11:29:22;100927.94;;;22.00
77789;BMP280;66980;44.384;0.512;2023-03-23T11:31:51;100916.91;;;22.00
77789;BMP280;66980;44.384;0.512;2023-03-23T11:39:23;100918.53;;;22.03
77789;BMP280;66980;44.384;0.512;2023-03-23T11:41:50;100908.19;;;22.04
77789;BMP280;66980;44.384;0.512;2023-03-23T11:44:16;100908.97;;;22.04
77789;BMP280;66980;44.384;0.512;2023-03-23T11:46:49;100886.34;;;21.90
77789;BMP280;66980;44.384;0.512;2023-03-23T11:49:28;100902.25;;;22.15
77789;BMP280;66980;44.384;0.512;2023-03-23T11:52:03;100884.72;;;22.20
77789;BMP280;66980;44.384;0.512;2023-03-23T11:54:39;100880.03;;;22.30
77789;BMP280;66980;44.384;0.512;2023-03-23T11:57:10;100870.16;;;22.44
77789;BMP280;66980;44.384;0.512;2023-03-23T11:59:38;100871.81;;;22.48
77789;BMP280;66980;44.384;0.512;2023-03-23T12:05:26;100873.38;;;22.58
77789;BMP280;66980;44.384;0.512;2023-03-23T12:08:06;100861.78;;;22.52
77789;BMP280;66980;44.384;0.512;2023-03-23T12:24:43;100842.00;;;22.38
77789;BMP280;66980;44.384;0.512;2023-03-23T12:27:18;100844.44;;;22.34
77789;BMP280;66980;44.384;0.512;2023-03-23T12:32:58;100836.53;;;22.31
77789;BMP280;66980;44.384;0.512;2023-03-23T12:48:40;100802.59;;;22.05
77789;BMP280;66980;44.384;0.512;2023-03-23T12:51:14;100820.41;;;22.19
77789;BMP280;66980;44.384;0.512;2023-03-23T12:53:47;100807.50;;;22.14
77789;BMP280;66980;44.384;0.512;2023-03-23T12:56:28;100809.72;;;22.16
77789;BMP280;66980;44.384;0.512;2023-03-23T12:59:12;100800.50;;;22.13
77789;BMP280;66980;44.384;0.512;2023-03-23T13:01:47;100794.63;;;22.09
77789;BMP280;66980;44.384;0.512;2023-03-23T13:07:16;100781.81;;;22.04
77789;BMP280;66980;44.384;0.512;2023-03-23T13:10:21;100785.47;;;22.07
77789;BMP280;66980;44.384;0.512;2023-03-23T13:12:40;100775.13;;;22.07
77789;BMP280;66980;44.384;0.512;2023-03-23T13:15:15;100771.81;;;22.09
77789;BMP280;66980;44.384;0.512;2023-03-23T13:20:57;100762.38;;;22.12
77789;BMP280;66980;44.384;0.512;2023-03-23T13:23:35;100766.03;;;22.14
77789;BMP280;66980;44.384;0.512;2023-03-23T13:26:13;100761.25;;;22.15
77789;BMP280;66980;44.384;0.512;2023-03-23T13:29:05;100748.19;;;22.15
77789;BMP280;66980;44.384;0.512;2023-03-23T13:31:38;100744.84;;;22.17
77789;BMP280;66980;44.384;0.512;2023-03-23T13:36:37;100740.56;;;22.24
77789;BMP280;66980;44.384;0.512;2023-03-23T13:39:26;100740.38;;;22.21
77789;BMP280;66980;44.384;0.512;2023-03-23T13:42:02;100735.91;;;22.26
77789;BMP280;66980;44.384;0.512;2023-03-23T13:44:41;100725.41;;;22.25
77789;BMP280;66980;44.384;0.512;2023-03-23T13:52:46;100723.69;;;22.29
77789;BMP280;66980;44.384;0.512;2023-03-23T14:03:14;100707.09;;;22.29
77789;BMP280;66980;44.384;0.512;2023-03-23T14:06:13;100702.19;;;22.28
77789;BMP280;66980;44.384;0.512;2023-03-23T14:08:43;100700.84;;;22.29
77789;BMP280;66980;44.384;0.512;2023-03-23T14:11:12;100695.41;;;22.21
77789;BMP280;66980;44.384;0.512;2023-03-23T14:13:45;100709.00;;;22.27
77789;BMP280;66980;44.384;0.512;2023-03-23T14:16:23;100708.25;;;22.26
77789;BMP280;66980;44.384;0.512;2023-03-23T14:18:57;100707.53;;;22.26
77789;BMP280;66980;44.384;0.512;2023-03-23T14:21:48;100702.41;;;22.22
77789;BMP280;66980;44.384;0.512;2023-03-23T14:24:21;100695.59;;;22.23
77789;BMP280;66980;44.384;0.512;2023-03-23T14:26:51;100690.06;;;22.23
77789;BMP280;66980;44.384;0.512;2023-03-23T14:29:18;100680.34;;;22.14
77789;BMP280;66980;44.384;0.512;2023-03-23T14:31:45;100689.47;;;22.25
77789;BMP280;66980;44.384;0.512;2023-03-23T14:34:16;100683.59;;;22.20
77789;BMP280;66980;44.384;0.512;2023-03-23T14:36:43;100689.63;;;22.27
77789;BMP280;66980;44.384;0.512;2023-03-23T14:39:29;100686.88;;;22.27
77789;BMP280;66980;44.384;0.512;2023-03-23T14:42:06;100672.16;;;22.24
77789;BMP280;66980;44.384;0.512;2023-03-23T14:44:39;100671.16;;;22.29
77789;BMP280;66980;44.384;0.512;2023-03-23T14:47:10;100672.84;;;22.32
77789;BMP280;66980;44.384;0.512;2023-03-23T14:49:40;100670.94;;;22.35
77789;BMP280;66980;44.384;0.512;2023-03-23T14:52:10;100676.97;;;22.41
77789;BMP280;66980;44.384;0.512;2023-03-23T14:54:37;100678.03;;;22.45
77789;BMP280;66980;44.384;0.512;2023-03-23T14:57:18;100666.56;;;22.49
77789;BMP280;66980;44.384;0.512;2023-03-23T14:59:46;100656.22;;;22.50
77789;BMP280;66980;44.384;0.512;2023-03-23T15:02:34;100660.19;;;22.56
77789;BMP280;66980;44.384;0.512;2023-03-23T15:05:13;100664.63;;;22.59
77789;BMP280;66980;44.384;0.512;2023-03-23T15:07:42;100652.53;;;22.64
77789;BMP280;66980;44.384;0.512;2023-03-23T15:10:14;100636.47;;;22.36
77789;BMP280;66980;44.384;0.512;2023-03-23T15:12:43;100621.88;;;22.18
77789;BMP280;66980;44.384;0.512;2023-03-23T15:15:33;100634.91;;;22.25
77789;BMP280;66980;44.384;0.512;2023-03-23T15:18:01;100634.97;;;22.17
77789;BMP280;66980;44.384;0.512;2023-03-23T15:20:32;100629.69;;;22.29
77789;BMP280;66980;44.384;0.512;2023-03-23T15:23:17;100632.06;;;22.33
77789;BMP280;66980;44.384;0.512;2023-03-23T15:25:49;100641.19;;;22.43
77789;BMP280;66980;44.384;0.512;2023-03-23T15:28:20;100645.13;;;22.40
77789;BMP280;66980;44.384;0.512;2023-03-23T15:30:52;100637.69;;;22.42
77789;BMP280;66980;44.384;0.512;2023-03-23T15:33:19;100620.59;;;22.36
77789;BMP280;66980;44.384;0.512;2023-03-23T15:35:52;100635.47;;;22.41
77789;BMP280;66980;44.384;0.512;2023-03-23T15:40:52;100624.25;;;22.39
77789;BMP280;66980;44.384;0.512;2023-03-23T15:43:20;100595.13;;;22.20
77789;BMP280;66980;44.384;0.512;2023-03-23T15:45:58;100629.78;;;22.39
77789;BMP280;66980;44.384;0.512;2023-03-23T15:48:29;100627.19;;;22.41
77789;BMP280;66980;44.384;0.512;2023-03-23T15:50:56;100617.47;;;22.40
77789;BMP280;66980;44.384;0.512;2023-03-23T15:53:37;100617.56;;;22.42
77789;BMP280;66980;44.384;0.512;2023-03-23T15:56:07;100619.63;;;22.41
77789;BMP280;66980;44.384;0.512;2023-03-23T15:58:34;100611.50;;;22.43
77789;BMP280;66980;44.384;0.512;2023-03-23T16:01:04;100596.63;;;22.39